sensor_id;sensor_type;location;lat;lon;timestamp;P1;durP1;ratioP1;P2;durP2;ratioP2
11651;SDS011;5882;48.818;9.114;2022-09-01T00:01:45;9.48;;;8.48;;
11651;SDS011;5882;48.818;9.114;2022-09-01T00:04:14;9.90;;;8.77;;
11651;SDS011;5882;48.818;9.114;2022-09-01T00:06:41;10.30;;;9.30;;
11651;SDS011;5882;48.818;9.114;2022-09-01T00:09:08;8.80;;;7.90;;
11651;SDS011;5882;48.818;9.114;2022-09-01T00:11:35;9.68;;;8.60;;
11651;SDS011;5882;48.818;9.114;2022-09-01T00:14:03;10.00;;;8.50;;
11651;SDS011;5882;48.818;9.114;2022-09-01T00:16:30;8.77;;;7.97;;
11651;SDS011;5882;48.818;9.114;2022-09-01T00:18:57;11.18;;;8.38;;
11651;SDS011;5882;48.818;9.114;2022-09-01T00:21:27;9.23;;;8.32;;
11651;SDS011;5882;48.818;9.114;2022-09-01T00:23:54;9.45;;;8.55;;
11651;SDS011;5882;48.818;9.114;2022-09-01T00:26:20;9.48;;;8.57;;
11651;SDS011;5882;48.818;9.114;2022-09-01T00:28:47;9.30;;;8.40;;
11651;SDS011;5882;48.818;9.114;2022-09-01T00:31:14;9.68;;;7.95;;
11651;SDS011;5882;48.818;9.114;2022-09-01T00:33:41;9.57;;;8.27;;
11651;SDS011;5882;48.818;9.114;2022-09-01T00:36:07;9.43;;;7.60;;
11651;SDS011;5882;48.818;9.114;2022-09-01T00:38:35;8.88;;;7.97;;
11651;SDS011;5882;48.818;9.114;2022-09-01T00:41:02;9.10;;;8.05;;
11651;SDS011;5882;48.818;9.114;2022-09-01T00:43:35;8.55;;;7.65;;
11651;SDS011;5882;48.818;9.114;2022-09-01T00:46:02;8.95;;;7.95;;
11651;SDS011;5882;48.818;9.114;2022-09-01T00:48:29;8.90;;;8.00;;
11651;SDS011;5882;48.818;9.114;2022-09-01T00:50:56;8.98;;;8.07;;
11651;SDS011;5882;48.818;9.114;2022-09-01T00:53:23;8.82;;;7.97;;
11651;SDS011;5882;48.818;9.114;2022-09-01T00:55:51;9.10;;;8.20;;
11651;SDS011;5882;48.818;9.114;2022-09-01T00:58:17;9.07;;;7.95;;
11651;SDS011;5882;48.818;9.114;2022-09-01T01:00:44;9.18;;;7.90;;
11651;SDS011;5882;48.818;9.114;2022-09-01T01:03:12;9.30;;;8.20;;
11651;SDS011;5882;48.818;9.114;2022-09-01T01:05:40;9.05;;;8.13;;
11651;SDS011;5882;48.818;9.114;2022-09-01T01:08:18;8.50;;;7.60;;
11651;SDS011;5882;48.818;9.114;2022-09-01T01:10:46;8.93;;;8.02;;
11651;SDS011;5882;48.818;9.114;2022-09-01T01:13:14;8.00;;;7.15;;
11651;SDS011;5882;48.818;9.114;2022-09-01T01:15:41;8.77;;;7.88;;
11651;SDS011;5882;48.818;9.114;2022-09-01T01:18:09;8.75;;;7.88;;
11651;SDS011;5882;48.818;9.114;2022-09-01T01:20:35;8.85;;;7.93;;
11651;SDS011;5882;48.818;9.114;2022-09-01T01:23:21;9.10;;;7.63;;
11651;SDS011;5882;48.818;9.114;2022-09-01T01:25:52;9.73;;;7.63;;
11651;SDS011;5882;48.818;9.114;2022-09-01T01:28:21;8.93;;;8.02;;
11651;SDS011;5882;48.818;9.114;2022-09-01T01:30:51;7.70;;;7.00;;
11651;SDS011;5882;48.818;9.114;2022-09-01T01:33:19;9.15;;;7.88;;
11651;SDS011;5882;48.818;9.114;2022-09-01T01:35:45;8.25;;;7.47;;
11651;SDS011;5882;48.818;9.114;2022-09-01T01:38:12;7.95;;;7.15;;
11651;SDS011;5882;48.818;9.114;2022-09-01T01:40:38;8.30;;;7.47;;
11651;SDS011;5882;48.818;9.114;2022-09-01T01:43:06;9.90;;;8.57;;
11651;SDS011;5882;48.818;9.114;2022-09-01T01:45:34;7.90;;;7.20;;
11651;SDS011;5882;48.818;9.114;2022-09-01T01:48:01;9.80;;;8.10;;
11651;SDS011;5882;48.818;9.114;2022-09-01T01:50:33;7.68;;;6.88;;
11651;SDS011;5882;48.818;9.114;2022-09-01T01:53:00;8.20;;;7.40;;
11651;SDS011;5882;48.818;9.114;2022-09-01T01:55:27;8.05;;;7.22;;
11651;SDS011;5882;48.818;9.114;2022-09-01T01:57:55;8.45;;;7.57;;
11651;SDS011;5882;48.818;9.114;2022-09-01T02:00:23;7.30;;;6.60;;
11651;SDS011;5882;48.818;9.114;2022-09-01T02:02:51;8.23;;;7.00;;
11651;SDS011;5882;48.818;9.114;2022-09-01T02:05:19;7.55;;;6.85;;
11651;SDS011;5882;48.818;9.114;2022-09-01T02:07:49;10.27;;;7.68;;
11651;SDS011;5882;48.818;9.114;2022-09-01T02:10:15;8.75;;;7.85;;
11651;SDS011;5882;48.818;9.114;2022-09-01T02:12:42;8.88;;;8.00;;
11651;SDS011;5882;48.818;9.114;2022-09-01T02:15:08;9.35;;;8.05;;
11651;SDS011;5882;48.818;9.114;2022-09-01T02:17:38;8.00;;;7.07;;
11651;SDS011;5882;48.818;9.114;2022-09-01T02:20:07;8.52;;;7.63;;
11651;SDS011;5882;48.818;9.114;2022-09-01T02:22:34;8.00;;;7.20;;
11651;SDS011;5882;48.818;9.114;2022-09-01T02:25:02;8.75;;;7.82;;
11651;SDS011;5882;48.818;9.114;2022-09-01T02:27:28;8.88;;;7.97;;
11651;SDS011;5882;48.818;9.114;2022-09-01T02:29:58;8.40;;;7.60;;
11651;SDS011;5882;48.818;9.114;2022-09-01T02:32:26;8.45;;;7.65;;
11651;SDS011;5882;48.818;9.114;2022-09-01T02:34:53;8.90;;;8.00;;
11651;SDS011;5882;48.818;9.114;2022-09-01T02:37:25;8.90;;;8.00;;
11651;SDS011;5882;48.818;9.114;2022-09-01T02:39:52;8.52;;;7.65;;
11651;SDS011;5882;48.818;9.114;2022-09-01T02:42:20;8.55;;;7.63;;
11651;SDS011;5882;48.818;9.114;2022-09-01T02:44:51;8.00;;;7.30;;
11651;SDS011;5882;48.818;9.114;2022-09-01T02:47:18;9.25;;;7.45;;
11651;SDS011;5882;48.818;9.114;2022-09-01T02:49:44;9.02;;;7.70;;
11651;SDS011;5882;48.818;9.114;2022-09-01T02:52:12;8.00;;;7.05;;
11651;SDS011;5882;48.818;9.114;2022-09-01T02:54:42;7.65;;;6.85;;
11651;SDS011;5882;48.818;9.114;2022-09-01T02:57:09;7.85;;;7.05;;
11651;SDS011;5882;48.818;9.114;2022-09-01T02:59:36;8.85;;;7.95;;
11651;SDS011;5882;48.818;9.114;2022-09-01T03:02:03;8.60;;;7.68;;
11651;SDS011;5882;48.818;9.114;2022-09-01T03:04:31;8.20;;;7.40;;
11651;SDS011;5882;48.818;9.114;2022-09-01T03:06:59;7.88;;;7.03;;
11651;SDS011;5882;48.818;9.114;2022-09-01T03:09:27;7.85;;;7.05;;
11651;SDS011;5882;48.818;9.114;2022-09-01T03:11:54;8.30;;;7.50;;
11651;SDS011;5882;48.818;9.114;2022-09-01T03:14:20;8.52;;;7.72;;
11651;SDS011;5882;48.818;9.114;2022-09-01T03:16:48;7.30;;;6.60;;
11651;SDS011;5882;48.818;9.114;2022-09-01T03:19:15;7.55;;;6.85;;
11651;SDS011;5882;48.818;9.114;2022-09-01T03:21:43;8.02;;;7.22;;
11651;SDS011;5882;48.818;9.114;2022-09-01T03:24:11;8.25;;;7.45;;
11651;SDS011;5882;48.818;9.114;2022-09-01T03:26:40;8.65;;;7.75;;
11651;SDS011;5882;48.818;9.114;2022-09-01T03:29:07;8.52;;;7.63;;
11651;SDS011;5882;48.818;9.114;2022-09-01T03:31:34;7.32;;;6.63;;
11651;SDS011;5882;48.818;9.114;2022-09-01T03:34:01;7.97;;;7.00;;
11651;SDS011;5882;48.818;9.114;2022-09-01T03:36:30;7.43;;;6.72;;
11651;SDS011;5882;48.818;9.114;2022-09-01T03:38:57;7.85;;;7.07;;
11651;SDS011;5882;48.818;9.114;2022-09-01T03:41:24;9.02;;;7.25;;
11651;SDS011;5882;48.818;9.114;2022-09-01T03:43:54;7.07;;;6.38;;
11651;SDS011;5882;48.818;9.114;2022-09-01T03:46:21;7.38;;;6.60;;
11651;SDS011;5882;48.818;9.114;2022-09-01T03:48:48;8.90;;;6.47;;
11651;SDS011;5882;48.818;9.114;2022-09-01T03:51:16;7.43;;;6.72;;
11651;SDS011;5882;48.818;9.114;2022-09-01T03:53:43;7.47;;;6.53;;
11651;SDS011;5882;48.818;9.114;2022-09-01T03:56:10;7.07;;;6.38;;
11651;SDS011;5882;48.818;9.114;2022-09-01T03:58:39;7.38;;;6.68;;
11651;SDS011;5882;48.818;9.114;2022-09-01T04:01:09;7.45;;;6.63;;
11651;SDS011;5882;48.818;9.114;2022-09-01T04:03:36;7.25;;;6.50;;
11651;SDS011;5882;48.818;9.114;2022-09-01T04:06:03;6.72;;;6.13;;
11651;SDS011;5882;48.818;9.114;2022-09-01T04:08:30;7.57;;;6.78;;
11651;SDS011;5882;48.818;9.114;2022-09-01T04:10:57;7.63;;;6.82;;
11651;SDS011;5882;48.818;9.114;2022-09-01T04:13:25;7.50;;;6.70;;
11651;SDS011;5882;48.818;9.114;2022-09-01T04:15:52;7.97;;;7.13;;
11651;SDS011;5882;48.818;9.114;2022-09-01T04:18:22;7.85;;;7.03;;
11651;SDS011;5882;48.818;9.114;2022-09-01T04:20:48;7.63;;;6.82;;
11651;SDS011;5882;48.818;9.114;2022-09-01T04:23:15;7.72;;;6.72;;
11651;SDS011;5882;48.818;9.114;2022-09-01T04:25:45;7.72;;;6.50;;
11651;SDS011;5882;48.818;9.114;2022-09-01T04:28:14;7.00;;;6.35;;
11651;SDS011;5882;48.818;9.114;2022-09-01T04:30:48;8.18;;;6.88;;
11651;SDS011;5882;48.818;9.114;2022-09-01T04:33:14;7.20;;;6.35;;
11651;SDS011;5882;48.818;9.114;2022-09-01T04:35:43;7.15;;;6.45;;
11651;SDS011;5882;48.818;9.114;2022-09-01T04:38:10;6.85;;;6.10;;
11651;SDS011;5882;48.818;9.114;2022-09-01T04:40:38;7.40;;;6.68;;
11651;SDS011;5882;48.818;9.114;2022-09-01T04:43:05;8.88;;;7.13;;
11651;SDS011;5882;48.818;9.114;2022-09-01T04:45:33;7.43;;;6.72;;
11651;SDS011;5882;48.818;9.114;2022-09-01T04:48:00;8.52;;;6.70;;
11651;SDS011;5882;48.818;9.114;2022-09-01T04:50:27;7.03;;;6.32;;
11651;SDS011;5882;48.818;9.114;2022-09-01T04:52:56;7.35;;;6.57;;
11651;SDS011;5882;48.818;9.114;2022-09-01T04:55:23;8.15;;;6.32;;
11651;SDS011;5882;48.818;9.114;2022-09-01T04:57:52;6.75;;;5.95;;
11651;SDS011;5882;48.818;9.114;2022-09-01T05:00:19;7.65;;;6.90;;
11651;SDS011;5882;48.818;9.114;2022-09-01T05:02:50;7.28;;;6.57;;
11651;SDS011;5882;48.818;9.114;2022-09-01T05:05:18;8.27;;;6.20;;
11651;SDS011;5882;48.818;9.114;2022-09-01T05:07:44;7.00;;;6.28;;
11651;SDS011;5882;48.818;9.114;2022-09-01T05:10:18;7.20;;;6.50;;
11651;SDS011;5882;48.818;9.114;2022-09-01T05:12:45;7.55;;;6.68;;
11651;SDS011;5882;48.818;9.114;2022-09-01T05:15:11;6.70;;;6.10;;
11651;SDS011;5882;48.818;9.114;2022-09-01T05:17:38;6.60;;;6.03;;
11651;SDS011;5882;48.818;9.114;2022-09-01T05:20:05;6.07;;;5.47;;
11651;SDS011;5882;48.818;9.114;2022-09-01T05:22:33;6.28;;;5.68;;
11651;SDS011;5882;48.818;9.114;2022-09-01T05:25:00;8.20;;;6.75;;
11651;SDS011;5882;48.818;9.114;2022-09-01T05:27:37;7.35;;;6.65;;
11651;SDS011;5882;48.818;9.114;2022-09-01T05:30:04;8.00;;;7.20;;
11651;SDS011;5882;48.818;9.114;2022-09-01T05:32:32;9.30;;;7.10;;
11651;SDS011;5882;48.818;9.114;2022-09-01T05:35:01;7.82;;;7.00;;
11651;SDS011;5882;48.818;9.114;2022-09-01T05:37:31;8.15;;;7.03;;
11651;SDS011;5882;48.818;9.114;2022-09-01T05:39:58;7.63;;;6.93;;
11651;SDS011;5882;48.818;9.114;2022-09-01T05:42:24;9.77;;;7.75;;
11651;SDS011;5882;48.818;9.114;2022-09-01T05:44:54;8.52;;;7.55;;
11651;SDS011;5882;48.818;9.114;2022-09-01T05:47:20;7.97;;;7.18;;
11651;SDS011;5882;48.818;9.114;2022-09-01T05:49:47;7.68;;;6.90;;
11651;SDS011;5882;48.818;9.114;2022-09-01T05:52:14;7.57;;;6.88;;
11651;SDS011;5882;48.818;9.114;2022-09-01T05:54:41;8.38;;;7.32;;
11651;SDS011;5882;48.818;9.114;2022-09-01T05:57:08;8.30;;;7.45;;
11651;SDS011;5882;48.818;9.114;2022-09-01T05:59:35;8.85;;;6.88;;
11651;SDS011;5882;48.818;9.114;2022-09-01T06:02:06;8.05;;;7.25;;
11651;SDS011;5882;48.818;9.114;2022-09-01T06:04:33;11.05;;;7.30;;
11651;SDS011;5882;48.818;9.114;2022-09-01T06:07:02;8.13;;;6.93;;
11651;SDS011;5882;48.818;9.114;2022-09-01T06:09:32;8.30;;;7.50;;
11651;SDS011;5882;48.818;9.114;2022-09-01T06:11:59;8.07;;;7.38;;
11651;SDS011;5882;48.818;9.114;2022-09-01T06:14:27;9.18;;;8.27;;
11651;SDS011;5882;48.818;9.114;2022-09-01T06:16:53;8.57;;;7.68;;
11651;SDS011;5882;48.818;9.114;2022-09-01T06:19:24;8.88;;;7.97;;
11651;SDS011;5882;48.818;9.114;2022-09-01T06:21:50;8.95;;;8.05;;
11651;SDS011;5882;48.818;9.114;2022-09-01T06:24:17;9.23;;;7.80;;
11651;SDS011;5882;48.818;9.114;2022-09-01T06:26:44;8.15;;;7.38;;
11651;SDS011;5882;48.818;9.114;2022-09-01T06:29:10;10.48;;;8.82;;
11651;SDS011;5882;48.818;9.114;2022-09-01T06:31:39;8.98;;;8.07;;
11651;SDS011;5882;48.818;9.114;2022-09-01T06:34:07;9.35;;;8.35;;
11651;SDS011;5882;48.818;9.114;2022-09-01T06:36:36;8.65;;;7.55;;
11651;SDS011;5882;48.818;9.114;2022-09-01T06:39:04;9.32;;;8.07;;
11651;SDS011;5882;48.818;9.114;2022-09-01T06:41:38;11.50;;;7.85;;
11651;SDS011;5882;48.818;9.114;2022-09-01T06:44:04;8.45;;;7.38;;
11651;SDS011;5882;48.818;9.114;2022-09-01T06:46:31;8.20;;;7.40;;
11651;SDS011;5882;48.818;9.114;2022-09-01T06:48:58;9.95;;;8.98;;
11651;SDS011;5882;48.818;9.114;2022-09-01T06:51:25;10.98;;;8.60;;
11651;SDS011;5882;48.818;9.114;2022-09-01T06:53:54;10.13;;;8.98;;
11651;SDS011;5882;48.818;9.114;2022-09-01T06:56:25;9.55;;;8.32;;
11651;SDS011;5882;48.818;9.114;2022-09-01T06:58:54;10.00;;;8.70;;
11651;SDS011;5882;48.818;9.114;2022-09-01T07:01:20;8.48;;;7.57;;
11651;SDS011;5882;48.818;9.114;2022-09-01T07:03:48;8.30;;;7.50;;
11651;SDS011;5882;48.818;9.114;2022-09-01T07:06:16;9.48;;;7.50;;
11651;SDS011;5882;48.818;9.114;2022-09-01T07:08:43;7.72;;;7.00;;
11651;SDS011;5882;48.818;9.114;2022-09-01T07:11:17;9.13;;;7.68;;
11651;SDS011;5882;48.818;9.114;2022-09-01T07:13:52;8.30;;;7.50;;
11651;SDS011;5882;48.818;9.114;2022-09-01T07:16:19;8.73;;;7.72;;
11651;SDS011;5882;48.818;9.114;2022-09-01T07:18:47;8.35;;;7.45;;
11651;SDS011;5882;48.818;9.114;2022-09-01T07:21:13;8.65;;;7.75;;
11651;SDS011;5882;48.818;9.114;2022-09-01T07:23:40;7.85;;;7.07;;
11651;SDS011;5882;48.818;9.114;2022-09-01T07:26:07;7.50;;;6.80;;
11651;SDS011;5882;48.818;9.114;2022-09-01T07:28:35;9.18;;;7.00;;
11651;SDS011;5882;48.818;9.114;2022-09-01T07:31:02;7.93;;;7.13;;
11651;SDS011;5882;48.818;9.114;2022-09-01T07:33:29;7.45;;;6.75;;
11651;SDS011;5882;48.818;9.114;2022-09-01T07:35:56;8.98;;;7.82;;
11651;SDS011;5882;48.818;9.114;2022-09-01T07:38:23;8.52;;;6.57;;
11651;SDS011;5882;48.818;9.114;2022-09-01T07:40:50;6.47;;;5.80;;
11651;SDS011;5882;48.818;9.114;2022-09-01T07:43:18;7.53;;;6.72;;
11651;SDS011;5882;48.818;9.114;2022-09-01T07:45:48;8.35;;;7.50;;
11651;SDS011;5882;48.818;9.114;2022-09-01T07:48:15;7.15;;;6.43;;
11651;SDS011;5882;48.818;9.114;2022-09-01T07:50:45;7.80;;;6.97;;
11651;SDS011;5882;48.818;9.114;2022-09-01T07:53:12;8.68;;;7.07;;
11651;SDS011;5882;48.818;9.114;2022-09-01T07:55:42;7.22;;;6.53;;
11651;SDS011;5882;48.818;9.114;2022-09-01T07:58:09;7.78;;;6.95;;
11651;SDS011;5882;48.818;9.114;2022-09-01T08:00:36;6.70;;;6.10;;
11651;SDS011;5882;48.818;9.114;2022-09-01T08:03:05;8.35;;;6.07;;
11651;SDS011;5882;48.818;9.114;2022-09-01T08:05:32;8.23;;;6.28;;
11651;SDS011;5882;48.818;9.114;2022-09-01T08:07:59;8.45;;;6.30;;
11651;SDS011;5882;48.818;9.114;2022-09-01T08:10:25;7.35;;;6.60;;
11651;SDS011;5882;48.818;9.114;2022-09-01T08:12:52;6.95;;;6.25;;
11651;SDS011;5882;48.818;9.114;2022-09-01T08:15:18;7.15;;;6.25;;
11651;SDS011;5882;48.818;9.114;2022-09-01T08:17:45;7.13;;;6.30;;
11651;SDS011;5882;48.818;9.114;2022-09-01T08:20:13;7.30;;;6.03;;
11651;SDS011;5882;48.818;9.114;2022-09-01T08:22:40;6.50;;;5.90;;
11651;SDS011;5882;48.818;9.114;2022-09-01T08:25:06;5.55;;;5.05;;
11651;SDS011;5882;48.818;9.114;2022-09-01T08:27:33;5.70;;;4.95;;
11651;SDS011;5882;48.818;9.114;2022-09-01T08:30:03;7.10;;;5.95;;
11651;SDS011;5882;48.818;9.114;2022-09-01T08:32:31;6.57;;;5.63;;
11651;SDS011;5882;48.818;9.114;2022-09-01T08:34:58;7.13;;;4.72;;
11651;SDS011;5882;48.818;9.114;2022-09-01T08:37:26;5.22;;;4.72;;
11651;SDS011;5882;48.818;9.114;2022-09-01T08:39:53;5.93;;;5.38;;
11651;SDS011;5882;48.818;9.114;2022-09-01T08:42:22;5.30;;;4.80;;
11651;SDS011;5882;48.818;9.114;2022-09-01T08:44:53;4.95;;;4.53;;
11651;SDS011;5882;48.818;9.114;2022-09-01T08:47:23;5.70;;;5.20;;
11651;SDS011;5882;48.818;9.114;2022-09-01T08:49:49;5.47;;;4.55;;
11651;SDS011;5882;48.818;9.114;2022-09-01T08:52:18;5.32;;;4.78;;
11651;SDS011;5882;48.818;9.114;2022-09-01T08:54:49;5.15;;;4.50;;
11651;SDS011;5882;48.818;9.114;2022-09-01T08:57:17;5.53;;;5.00;;
11651;SDS011;5882;48.818;9.114;2022-09-01T08:59:44;5.03;;;4.55;;
11651;SDS011;5882;48.818;9.114;2022-09-01T09:02:16;4.53;;;4.13;;
11651;SDS011;5882;48.818;9.114;2022-09-01T09:04:48;4.72;;;4.32;;
11651;SDS011;5882;48.818;9.114;2022-09-01T09:07:20;4.00;;;3.60;;
11651;SDS011;5882;48.818;9.114;2022-09-01T09:09:51;3.92;;;3.60;;
11651;SDS011;5882;48.818;9.114;2022-09-01T09:12:31;3.80;;;3.50;;
11651;SDS011;5882;48.818;9.114;2022-09-01T09:15:07;4.95;;;4.10;;
11651;SDS011;5882;48.818;9.114;2022-09-01T09:17:37;3.72;;;3.42;;
11651;SDS011;5882;48.818;9.114;2022-09-01T09:20:05;3.72;;;3.42;;
11651;SDS011;5882;48.818;9.114;2022-09-01T09:22:32;3.58;;;3.28;;
11651;SDS011;5882;48.818;9.114;2022-09-01T09:25:01;3.83;;;3.53;;
11651;SDS011;5882;48.818;9.114;2022-09-01T09:27:29;3.45;;;3.15;;
11651;SDS011;5882;48.818;9.114;2022-09-01T09:29:56;4.47;;;4.07;;
11651;SDS011;5882;48.818;9.114;2022-09-01T09:32:24;4.63;;;4.05;;
11651;SDS011;5882;48.818;9.114;2022-09-01T09:35:16;4.30;;;3.90;;
11651;SDS011;5882;48.818;9.114;2022-09-01T09:37:43;4.10;;;3.70;;
11651;SDS011;5882;48.818;9.114;2022-09-01T09:40:12;4.03;;;3.60;;
11651;SDS011;5882;48.818;9.114;2022-09-01T09:42:40;6.10;;;4.07;;
11651;SDS011;5882;48.818;9.114;2022-09-01T09:45:14;6.15;;;3.83;;
11651;SDS011;5882;48.818;9.114;2022-09-01T09:47:46;4.43;;;4.00;;
11651;SDS011;5882;48.818;9.114;2022-09-01T09:50:17;3.80;;;3.50;;
11651;SDS011;5882;48.818;9.114;2022-09-01T09:52:45;4.38;;;3.97;;
11651;SDS011;5882;48.818;9.114;2022-09-01T09:55:24;3.63;;;3.33;;
11651;SDS011;5882;48.818;9.114;2022-09-01T09:57:52;4.00;;;3.60;;
11651;SDS011;5882;48.818;9.114;2022-09-01T10:00:20;3.83;;;3.53;;
11651;SDS011;5882;48.818;9.114;2022-09-01T10:02:50;4.50;;;4.10;;
11651;SDS011;5882;48.818;9.114;2022-09-01T10:05:22;4.27;;;3.90;;
11651;SDS011;5882;48.818;9.114;2022-09-01T10:07:49;4.03;;;3.63;;
11651;SDS011;5882;48.818;9.114;2022-09-01T10:10:25;4.18;;;3.88;;
11651;SDS011;5882;48.818;9.114;2022-09-01T10:12:53;3.70;;;3.35;;
11651;SDS011;5882;48.818;9.114;2022-09-01T10:15:20;3.85;;;3.55;;
11651;SDS011;5882;48.818;9.114;2022-09-01T10:17:47;4.00;;;3.70;;
11651;SDS011;5882;48.818;9.114;2022-09-01T10:20:17;4.32;;;3.92;;
11651;SDS011;5882;48.818;9.114;2022-09-01T10:22:45;4.07;;;3.45;;
11651;SDS011;5882;48.818;9.114;2022-09-01T10:25:13;3.85;;;3.50;;
11651;SDS011;5882;48.818;9.114;2022-09-01T10:27:43;3.80;;;3.50;;
11651;SDS011;5882;48.818;9.114;2022-09-01T10:30:12;4.32;;;3.88;;
11651;SDS011;5882;48.818;9.114;2022-09-01T10:32:39;3.80;;;3.50;;
11651;SDS011;5882;48.818;9.114;2022-09-01T10:35:07;4.07;;;3.63;;
11651;SDS011;5882;48.818;9.114;2022-09-01T10:37:36;3.53;;;3.22;;
11651;SDS011;5882;48.818;9.114;2022-09-01T10:40:14;3.40;;;3.15;;
11651;SDS011;5882;48.818;9.114;2022-09-01T10:42:41;3.85;;;3.50;;
11651;SDS011;5882;48.818;9.114;2022-09-01T10:45:17;3.70;;;3.40;;
11651;SDS011;5882;48.818;9.114;2022-09-01T10:47:44;3.45;;;3.15;;
11651;SDS011;5882;48.818;9.114;2022-09-01T10:50:25;4.13;;;3.80;;
11651;SDS011;5882;48.818;9.114;2022-09-01T10:52:56;3.25;;;3.05;;
11651;SDS011;5882;48.818;9.114;2022-09-01T10:55:24;3.70;;;3.40;;
11651;SDS011;5882;48.818;9.114;2022-09-01T10:57:59;3.35;;;3.05;;
11651;SDS011;5882;48.818;9.114;2022-09-01T11:06:02;3.50;;;3.15;;
11651;SDS011;5882;48.818;9.114;2022-09-01T11:08:42;3.03;;;2.75;;
11651;SDS011;5882;48.818;9.114;2022-09-01T11:11:13;2.97;;;2.78;;
11651;SDS011;5882;48.818;9.114;2022-09-01T11:13:42;2.90;;;2.70;;
11651;SDS011;5882;48.818;9.114;2022-09-01T11:16:26;3.30;;;2.97;;
11651;SDS011;5882;48.818;9.114;2022-09-01T11:18:53;3.58;;;3.00;;
11651;SDS011;5882;48.818;9.114;2022-09-01T11:21:23;3.20;;;2.90;;
11651;SDS011;5882;48.818;9.114;2022-09-01T11:26:46;2.97;;;2.75;;
11651;SDS011;5882;48.818;9.114;2022-09-01T11:31:53;3.05;;;2.85;;
11651;SDS011;5882;48.818;9.114;2022-09-01T11:34:20;2.90;;;2.70;;
11651;SDS011;5882;48.818;9.114;2022-09-01T11:36:53;4.70;;;2.80;;
11651;SDS011;5882;48.818;9.114;2022-09-01T11:39:23;3.17;;;2.78;;
11651;SDS011;5882;48.818;9.114;2022-09-01T11:41:54;3.75;;;3.00;;
11651;SDS011;5882;48.818;9.114;2022-09-01T11:44:22;3.13;;;2.83;;
11651;SDS011;5882;48.818;9.114;2022-09-01T11:46:49;3.20;;;3.00;;
11651;SDS011;5882;48.818;9.114;2022-09-01T11:49:24;2.70;;;2.50;;
11651;SDS011;5882;48.818;9.114;2022-09-01T11:51:53;2.72;;;2.53;;
11651;SDS011;5882;48.818;9.114;2022-09-01T11:54:21;2.83;;;2.63;;
11651;SDS011;5882;48.818;9.114;2022-09-01T11:56:48;3.03;;;2.83;;
11651;SDS011;5882;48.818;9.114;2022-09-01T11:59:28;3.10;;;2.90;;
11651;SDS011;5882;48.818;9.114;2022-09-01T12:01:55;2.53;;;2.33;;
11651;SDS011;5882;48.818;9.114;2022-09-01T12:04:23;2.50;;;2.30;;
11651;SDS011;5882;48.818;9.114;2022-09-01T12:06:51;2.33;;;2.13;;
11651;SDS011;5882;48.818;9.114;2022-09-01T12:09:19;2.60;;;2.40;;
11651;SDS011;5882;48.818;9.114;2022-09-01T12:11:46;2.50;;;2.30;;
11651;SDS011;5882;48.818;9.114;2022-09-01T12:14:18;2.50;;;2.30;;
11651;SDS011;5882;48.818;9.114;2022-09-01T12:16:47;2.58;;;2.38;;
11651;SDS011;5882;48.818;9.114;2022-09-01T12:19:21;2.50;;;2.30;;
11651;SDS011;5882;48.818;9.114;2022-09-01T12:21:55;2.95;;;2.75;;
11651;SDS011;5882;48.818;9.114;2022-09-01T12:24:23;2.63;;;2.42;;
11651;SDS011;5882;48.818;9.114;2022-09-01T12:26:50;2.85;;;2.65;;
11651;SDS011;5882;48.818;9.114;2022-09-01T12:29:18;2.70;;;2.50;;
11651;SDS011;5882;48.818;9.114;2022-09-01T12:31:45;2.63;;;2.42;;
11651;SDS011;5882;48.818;9.114;2022-09-01T12:34:22;2.70;;;2.50;;
11651;SDS011;5882;48.818;9.114;2022-09-01T12:37:00;2.80;;;2.60;;
11651;SDS011;5882;48.818;9.114;2022-09-01T12:39:31;2.10;;;2.00;;
11651;SDS011;5882;48.818;9.114;2022-09-01T12:42:03;2.58;;;2.38;;
11651;SDS011;5882;48.818;9.114;2022-09-01T12:44:30;2.97;;;2.78;;
11651;SDS011;5882;48.818;9.114;2022-09-01T12:46:59;2.70;;;2.50;;
11651;SDS011;5882;48.818;9.114;2022-09-01T12:49:33;2.83;;;2.63;;
11651;SDS011;5882;48.818;9.114;2022-09-01T12:52:10;2.90;;;2.70;;
11651;SDS011;5882;48.818;9.114;2022-09-01T12:54:39;3.03;;;2.20;;
11651;SDS011;5882;48.818;9.114;2022-09-01T12:57:05;2.90;;;2.70;;
11651;SDS011;5882;48.818;9.114;2022-09-01T12:59:32;2.70;;;2.50;;
11651;SDS011;5882;48.818;9.114;2022-09-01T13:04:40;2.00;;;1.90;;
11651;SDS011;5882;48.818;9.114;2022-09-01T13:07:06;2.22;;;2.00;;
11651;SDS011;5882;48.818;9.114;2022-09-01T13:09:33;2.40;;;2.30;;
11651;SDS011;5882;48.818;9.114;2022-09-01T13:12:11;2.10;;;2.00;;
11651;SDS011;5882;48.818;9.114;2022-09-01T13:14:41;2.20;;;2.10;;
11651;SDS011;5882;48.818;9.114;2022-09-01T13:17:07;2.05;;;1.95;;
11651;SDS011;5882;48.818;9.114;2022-09-01T13:19:34;2.20;;;2.10;;
11651;SDS011;5882;48.818;9.114;2022-09-01T13:22:05;2.38;;;2.17;;
11651;SDS011;5882;48.818;9.114;2022-09-01T13:24:32;2.30;;;2.20;;
11651;SDS011;5882;48.818;9.114;2022-09-01T13:26:58;2.00;;;1.90;;
11651;SDS011;5882;48.818;9.114;2022-09-01T13:29:26;2.42;;;2.00;;
11651;SDS011;5882;48.818;9.114;2022-09-01T13:31:53;2.10;;;2.00;;
11651;SDS011;5882;48.818;9.114;2022-09-01T13:34:19;2.60;;;2.40;;
11651;SDS011;5882;48.818;9.114;2022-09-01T13:36:46;2.20;;;2.10;;
11651;SDS011;5882;48.818;9.114;2022-09-01T13:39:13;2.10;;;2.00;;
11651;SDS011;5882;48.818;9.114;2022-09-01T13:41:39;2.42;;;2.28;;
11651;SDS011;5882;48.818;9.114;2022-09-01T13:44:05;2.10;;;2.00;;
11651;SDS011;5882;48.818;9.114;2022-09-01T13:46:33;2.63;;;2.42;;
11651;SDS011;5882;48.818;9.114;2022-09-01T13:49:00;2.50;;;2.30;;
11651;SDS011;5882;48.818;9.114;2022-09-01T13:51:27;2.60;;;2.40;;
11651;SDS011;5882;48.818;9.114;2022-09-01T13:53:54;2.65;;;2.45;;
11651;SDS011;5882;48.818;9.114;2022-09-01T13:56:22;2.95;;;2.75;;
11651;SDS011;5882;48.818;9.114;2022-09-01T13:58:49;2.20;;;2.10;;
11651;SDS011;5882;48.818;9.114;2022-09-01T14:01:15;2.58;;;2.40;;
11651;SDS011;5882;48.818;9.114;2022-09-01T14:03:43;2.60;;;2.40;;
11651;SDS011;5882;48.818;9.114;2022-09-01T14:06:10;2.13;;;2.03;;
11651;SDS011;5882;48.818;9.114;2022-09-01T14:08:37;2.17;;;2.00;;
11651;SDS011;5882;48.818;9.114;2022-09-01T14:11:03;2.13;;;2.03;;
11651;SDS011;5882;48.818;9.114;2022-09-01T14:13:30;2.33;;;2.22;;
11651;SDS011;5882;48.818;9.114;2022-09-01T14:15:57;2.45;;;2.25;;
11651;SDS011;5882;48.818;9.114;2022-09-01T14:18:24;2.22;;;2.13;;
11651;SDS011;5882;48.818;9.114;2022-09-01T14:21:02;2.28;;;2.17;;
11651;SDS011;5882;48.818;9.114;2022-09-01T14:23:28;2.63;;;2.45;;
11651;SDS011;5882;48.818;9.114;2022-09-01T14:25:55;2.40;;;2.30;;
11651;SDS011;5882;48.818;9.114;2022-09-01T14:28:22;2.33;;;2.22;;
11651;SDS011;5882;48.818;9.114;2022-09-01T14:30:49;2.35;;;2.15;;
11651;SDS011;5882;48.818;9.114;2022-09-01T14:33:16;2.20;;;2.00;;
11651;SDS011;5882;48.818;9.114;2022-09-01T14:35:44;2.70;;;2.50;;
11651;SDS011;5882;48.818;9.114;2022-09-01T14:38:12;2.10;;;2.00;;
11651;SDS011;5882;48.818;9.114;2022-09-01T14:40:39;2.45;;;2.33;;
11651;SDS011;5882;48.818;9.114;2022-09-01T14:43:07;2.47;;;2.28;;
11651;SDS011;5882;48.818;9.114;2022-09-01T14:45:34;2.42;;;2.33;;
11651;SDS011;5882;48.818;9.114;2022-09-01T14:48:02;2.40;;;2.25;;
11651;SDS011;5882;48.818;9.114;2022-09-01T14:50:29;2.35;;;2.15;;
11651;SDS011;5882;48.818;9.114;2022-09-01T14:52:58;5.03;;;2.33;;
11651;SDS011;5882;48.818;9.114;2022-09-01T14:55:27;2.58;;;2.38;;
11651;SDS011;5882;48.818;9.114;2022-09-01T14:57:54;2.40;;;2.13;;
11651;SDS011;5882;48.818;9.114;2022-09-01T15:00:21;2.25;;;2.15;;
11651;SDS011;5882;48.818;9.114;2022-09-01T15:02:49;2.47;;;2.28;;
11651;SDS011;5882;48.818;9.114;2022-09-01T15:05:15;2.33;;;2.22;;
11651;SDS011;5882;48.818;9.114;2022-09-01T15:07:42;2.72;;;2.00;;
11651;SDS011;5882;48.818;9.114;2022-09-01T15:10:10;2.00;;;1.90;;
11651;SDS011;5882;48.818;9.114;2022-09-01T15:12:39;2.05;;;1.95;;
11651;SDS011;5882;48.818;9.114;2022-09-01T15:15:07;1.90;;;1.80;;
11651;SDS011;5882;48.818;9.114;2022-09-01T15:17:34;2.55;;;2.10;;
11651;SDS011;5882;48.818;9.114;2022-09-01T15:20:01;2.10;;;2.00;;
11651;SDS011;5882;48.818;9.114;2022-09-01T15:22:41;1.85;;;1.75;;